createdAt,value
2023-03-22T00:01:46.633Z,23.80
2023-03-22T00:04:14.983Z,22.67
2023-03-22T00:06:44.320Z,23.97
2023-03-22T00:09:12.291Z,22.97
2023-03-22T00:11:40.359Z,23.60
2023-03-22T00:14:08.512Z,24.00
2023-03-22T00:16:36.553Z,24.07
2023-03-22T00:19:04.574Z,25.40
2023-03-22T00:21:32.557Z,23.63
2023-03-22T00:24:01.920Z,24.73
2023-03-22T00:26:29.887Z,24.00
2023-03-22T00:28:58.057Z,24.00
2023-03-22T00:31:26.187Z,24.07
2023-03-22T00:33:54.187Z,25.37
2023-03-22T00:36:22.191Z,25.27
2023-03-22T00:38:50.460Z,24.67
2023-03-22T00:41:21.262Z,23.23
2023-03-22T00:43:50.222Z,25.40
2023-03-22T00:46:20.463Z,24.27
2023-03-22T00:48:48.894Z,26.57
2023-03-22T00:51:18.114Z,24.67
2023-03-22T00:53:49.604Z,24.33
2023-03-22T00:56:19.542Z,23.67
2023-03-22T00:58:47.680Z,24.80
2023-03-22T01:01:15.972Z,24.97
2023-03-22T01:03:44.956Z,25.03
2023-03-22T01:06:12.994Z,25.07
2023-03-22T01:08:40.989Z,24.70
2023-03-22T01:11:10.492Z,25.20
2023-03-22T01:13:41.790Z,24.33
2023-03-22T01:16:11.401Z,23.93
2023-03-22T01:18:39.683Z,25.50
2023-03-22T01:21:08.376Z,25.43
2023-03-22T01:23:36.612Z,26.90
2023-03-22T01:26:05.296Z,26.20
2023-03-22T01:28:33.394Z,25.80
2023-03-22T01:31:04.830Z,25.00
2023-03-22T01:33:33.002Z,24.83
2023-03-22T01:36:01.159Z,26.97
2023-03-22T01:38:29.246Z,26.13
2023-03-22T01:40:57.534Z,24.37
2023-03-22T01:43:25.721Z,23.73
2023-03-22T01:45:54.681Z,23.37
2023-03-22T01:48:28.070Z,23.87
2023-03-22T01:51:03.793Z,25.13
2023-03-22T01:53:35.736Z,23.60
2023-03-22T01:56:04.583Z,26.33
2023-03-22T01:58:35.311Z,25.57
2023-03-22T02:01:05.436Z,23.63
2023-03-22T02:03:42.543Z,22.20
2023-03-22T02:06:10.786Z,23.53
2023-03-22T02:08:40.610Z,25.17
2023-03-22T02:11:14.275Z,22.77
2023-03-22T02:13:53.854Z,24.70
2023-03-22T02:16:33.994Z,22.33
2023-03-22T02:19:34.257Z,23.83
2023-03-22T02:22:32.289Z,24.30
2023-03-22T02:25:34.301Z,23.80
2023-03-22T02:28:18.743Z,22.23
2023-03-22T02:31:09.850Z,24.47
2023-03-22T02:33:59.438Z,23.33
2023-03-22T02:37:02.260Z,22.20
2023-03-22T02:39:36.696Z,22.87
2023-03-22T02:42:15.929Z,22.00
2023-03-22T02:44:47.169Z,23.80
2023-03-22T02:47:23.462Z,22.67
2023-03-22T02:49:57.218Z,23.27
2023-03-22T02:52:32.481Z,22.60
2023-03-22T02:55:09.141Z,24.10
2023-03-22T02:57:43.614Z,23.17
2023-03-22T03:00:15.050Z,23.90
2023-03-22T03:02:48.683Z,23.70
2023-03-22T03:05:19.350Z,23.87
2023-03-22T03:07:51.924Z,24.47
2023-03-22T03:10:23.249Z,22.97
2023-03-22T03:12:51.566Z,22.97
2023-03-22T03:15:21.726Z,23.27
2023-03-22T03:18:11.573Z,24.10
2023-03-22T03:20:52.388Z,25.23
2023-03-22T03:23:32.272Z,24.40
2023-03-22T03:26:08.427Z,24.37
2023-03-22T03:28:44.962Z,25.03
2023-03-22T03:31:24.890Z,23.03
2023-03-22T03:34:00.950Z,22.57
2023-03-22T03:36:31.520Z,23.00
2023-03-22T03:39:00.830Z,23.77
2023-03-22T03:41:33.054Z,23.90
2023-03-22T03:44:03.065Z,24.43
2023-03-22T03:46:31.680Z,23.63
2023-03-22T03:49:00.486Z,23.57
2023-03-22T03:51:29.546Z,25.23
2023-03-22T03:53:57.549Z,25.50
2023-03-22T03:56:25.785Z,24.83
2023-03-22T03:58:55.709Z,24.03
2023-03-22T04:01:24.280Z,25.57
2023-03-22T04:03:55.573Z,25.07
2023-03-22T04:06:23.672Z,24.47
2023-03-22T04:08:53.630Z,27.30
2023-03-22T04:11:22.008Z,25.03
2023-03-22T04:13:49.989Z,25.07
2023-03-22T04:16:19.446Z,24.80
2023-03-22T04:18:47.445Z,25.27
2023-03-22T04:21:16.595Z,25.37
2023-03-22T04:23:46.860Z,25.83
2023-03-22T04:26:14.963Z,26.23
2023-03-22T04:28:43.064Z,25.93
2023-03-22T04:31:11.100Z,25.53
2023-03-22T04:33:41.678Z,26.17
2023-03-22T04:36:11.179Z,25.37
2023-03-22T04:38:40.210Z,27.10
2023-03-22T04:41:08.634Z,26.40
2023-03-22T04:43:39.602Z,28.20
2023-03-22T04:46:10.203Z,26.57
2023-03-22T04:48:39.331Z,26.57
2023-03-22T04:51:11.078Z,27.60
2023-03-22T04:53:39.760Z,27.87
2023-03-22T04:56:09.441Z,27.20
2023-03-22T04:58:40.167Z,27.70
2023-03-22T05:01:08.998Z,27.33
2023-03-22T05:03:38.089Z,28.63
2023-03-22T05:06:09.648Z,28.07
2023-03-22T05:08:38.113Z,28.07
2023-03-22T05:11:08.410Z,29.47
2023-03-22T05:13:37.589Z,29.47
2023-03-22T05:16:06.968Z,31.17
2023-03-22T05:18:35.221Z,30.90
2023-03-22T05:21:03.962Z,35.03
2023-03-22T05:23:33.604Z,29.93
2023-03-22T05:26:04.365Z,32.60
2023-03-22T05:28:32.606Z,30.90
2023-03-22T05:31:00.738Z,29.13
2023-03-22T05:33:29.723Z,30.17
2023-03-22T05:35:57.800Z,29.83
2023-03-22T05:38:25.834Z,29.37
2023-03-22T05:40:55.270Z,28.23
2023-03-22T05:43:23.234Z,28.57
2023-03-22T05:45:51.403Z,31.10
2023-03-22T05:48:19.836Z,28.23
2023-03-22T05:50:48.077Z,32.37
2023-03-22T05:53:16.355Z,33.90
2023-03-22T05:55:44.899Z,35.87
2023-03-22T05:58:18.993Z,34.00
2023-03-22T06:00:49.618Z,33.40
2023-03-22T06:03:18.351Z,32.43
2023-03-22T06:05:46.784Z,32.40
2023-03-22T06:08:14.795Z,31.93
2023-03-22T06:10:43.069Z,30.10
2023-03-22T06:13:11.090Z,27.80
2023-03-22T06:15:40.602Z,27.17
2023-03-22T06:18:09.014Z,26.97
2023-03-22T06:20:37.063Z,28.07
2023-03-22T06:23:05.208Z,30.60
2023-03-22T06:25:33.485Z,29.70
2023-03-22T06:28:01.739Z,27.27
2023-03-22T06:30:29.880Z,29.13
2023-03-22T06:33:00.839Z,29.43
2023-03-22T06:35:29.099Z,29.50
2023-03-22T06:37:57.117Z,28.70
2023-03-22T06:40:25.231Z,27.37
2023-03-22T06:42:54.536Z,30.00
2023-03-22T06:45:22.765Z,27.33
2023-03-22T06:47:51.261Z,30.30
2023-03-22T06:50:20.821Z,30.37
2023-03-22T06:52:48.755Z,30.63
2023-03-22T06:55:17.051Z,29.47
2023-03-22T06:57:45.251Z,27.63
2023-03-22T07:00:15.357Z,28.60
2023-03-22T07:02:43.517Z,28.93
2023-03-22T07:05:11.808Z,28.03
2023-03-22T07:07:41.180Z,30.63
2023-03-22T07:10:10.094Z,27.07
2023-03-22T07:12:38.126Z,27.47
2023-03-22T07:15:07.332Z,28.07
2023-03-22T07:17:35.532Z,26.27
2023-03-22T07:20:04.033Z,26.37
2023-03-22T07:22:31.966Z,27.30
2023-03-22T07:25:01.937Z,24.40
2023-03-22T07:27:30.025Z,24.70
2023-03-22T07:29:58.021Z,23.83
2023-03-22T07:32:26.240Z,26.03
2023-03-22T07:34:54.737Z,24.77
2023-03-22T07:37:22.771Z,23.97
2023-03-22T07:39:50.727Z,24.83
2023-03-22T07:42:20.756Z,22.60
2023-03-22T07:44:49.965Z,24.37
2023-03-22T07:47:27.166Z,22.20
2023-03-22T07:50:02.234Z,22.37
2023-03-22T07:52:30.262Z,22.50
2023-03-22T07:54:58.340Z,22.00
2023-03-22T07:57:27.701Z,16.37
2023-03-22T07:59:56.592Z,19.37
2023-03-22T08:02:24.765Z,21.37
2023-03-22T08:04:56.492Z,21.23
2023-03-22T08:07:25.905Z,21.07
2023-03-22T08:09:53.905Z,21.23
2023-03-22T08:12:22.077Z,21.53
2023-03-22T08:14:53.233Z,21.43
2023-03-22T08:17:21.283Z,20.83
2023-03-22T08:19:50.190Z,20.37
2023-03-22T08:22:18.226Z,19.87
2023-03-22T08:24:46.225Z,21.50
2023-03-22T08:27:14.492Z,22.73
2023-03-22T08:29:42.604Z,21.50
2023-03-22T08:32:12.107Z,19.53
2023-03-22T08:34:41.434Z,19.63
2023-03-22T08:37:11.062Z,19.87
2023-03-22T08:39:39.410Z,20.63
2023-03-22T08:42:07.500Z,19.27
2023-03-22T08:44:35.620Z,17.50
2023-03-22T08:47:03.808Z,18.70
2023-03-22T08:49:33.339Z,18.77
2023-03-22T08:52:01.449Z,16.30
2023-03-22T08:54:33.738Z,14.97
2023-03-22T08:57:03.415Z,18.27
2023-03-22T08:59:31.448Z,17.87
2023-03-22T09:01:59.854Z,16.03
2023-03-22T09:04:28.162Z,17.67
2023-03-22T09:06:57.631Z,18.50
2023-03-22T09:09:25.664Z,17.77
2023-03-22T09:11:53.883Z,17.57
2023-03-22T09:14:21.931Z,18.53
2023-03-22T09:16:49.969Z,17.93
2023-03-22T09:19:18.117Z,16.60
2023-03-22T09:21:46.791Z,16.37
2023-03-22T09:24:16.286Z,19.47
2023-03-22T09:26:44.294Z,20.73
2023-03-22T09:29:12.674Z,18.87
2023-03-22T09:31:40.843Z,18.30
2023-03-22T09:34:09.148Z,18.67
2023-03-22T09:36:37.328Z,16.73
2023-03-22T09:39:07.639Z,17.63
2023-03-22T09:41:42.461Z,17.37
2023-03-22T09:44:15.499Z,16.80
2023-03-22T09:46:47.114Z,16.57
2023-03-22T09:49:21.758Z,15.73
2023-03-22T09:51:51.799Z,14.57
2023-03-22T09:54:22.055Z,16.10
2023-03-22T09:57:00.069Z,16.97
2023-03-22T09:59:39.994Z,14.67
2023-03-22T10:02:33.739Z,14.73
2023-03-22T10:05:13.210Z,13.13
2023-03-22T10:08:00.203Z,13.07
2023-03-22T10:10:28.775Z,10.87
2023-03-22T10:13:05.549Z,13.20
2023-03-22T10:15:36.738Z,12.33
2023-03-22T10:18:09.077Z,12.13
2023-03-22T10:20:43.038Z,12.80
2023-03-22T10:23:17.109Z,12.10
2023-03-22T10:25:45.346Z,12.97
2023-03-22T10:28:22.093Z,12.13
2023-03-22T10:30:55.286Z,12.33
2023-03-22T10:33:32.462Z,11.83
2023-03-22T10:36:02.410Z,11.77
2023-03-22T10:38:32.121Z,12.20
2023-03-22T10:41:01.572Z,12.77
2023-03-22T10:43:33.927Z,11.80
2023-03-22T10:46:04.289Z,11.33
2023-03-22T10:48:35.614Z,12.07
2023-03-22T10:51:04.441Z,11.67
2023-03-22T10:53:39.561Z,12.17
2023-03-22T10:56:13.649Z,12.17
2023-03-22T10:58:43.618Z,12.10
2023-03-22T11:01:14.036Z,12.27
2023-03-22T11:03:44.025Z,12.30
2023-03-22T11:06:14.998Z,10.90
2023-03-22T11:08:46.318Z,13.27
2023-03-22T11:11:26.193Z,11.67
2023-03-22T11:14:03.074Z,12.67
2023-03-22T11:16:32.623Z,12.70
2023-03-22T11:19:03.568Z,12.87
2023-03-22T11:21:34.257Z,11.83
2023-03-22T11:24:06.553Z,13.40
2023-03-22T11:26:39.187Z,11.67
2023-03-22T11:29:18.168Z,12.23
2023-03-22T11:31:54.331Z,11.60
2023-03-22T11:34:24.916Z,12.10
2023-03-22T11:36:57.121Z,13.03
2023-03-22T11:39:28.368Z,10.30
2023-03-22T11:42:01.429Z,12.00
2023-03-22T11:44:35.577Z,11.20
2023-03-22T11:47:05.758Z,10.60
2023-03-22T11:49:41.514Z,11.43
2023-03-22T11:52:12.956Z,12.50
2023-03-22T11:54:42.698Z,11.53
2023-03-22T11:57:15.057Z,10.57
2023-03-22T11:59:51.163Z,10.50
2023-03-22T12:02:24.921Z,11.23
2023-03-22T12:05:00.643Z,12.07
2023-03-22T12:07:31.278Z,11.30
2023-03-22T12:10:06.548Z,10.30
2023-03-22T12:12:39.859Z,11.33
2023-03-22T12:15:16.776Z,10.83
2023-03-22T12:17:50.285Z,10.77
2023-03-22T12:20:34.141Z,11.90
2023-03-22T12:23:03.735Z,10.97
2023-03-22T12:25:35.099Z,11.50
2023-03-22T12:28:07.642Z,11.27
2023-03-22T12:30:43.066Z,10.17
2023-03-22T12:33:17.736Z,11.10
2023-03-22T12:35:48.265Z,11.10
2023-03-22T12:38:28.265Z,9.40
2023-03-22T12:40:59.167Z,9.50
2023-03-22T12:43:42.278Z,11.03
2023-03-22T12:46:19.228Z,9.67
2023-03-22T12:48:50.335Z,10.60
2023-03-22T12:51:18.620Z,10.73
2023-03-22T12:53:49.078Z,9.90
2023-03-22T12:56:19.512Z,9.77
2023-03-22T12:58:51.964Z,9.23
2023-03-22T13:01:33.512Z,9.70
2023-03-22T13:04:21.732Z,9.87
2023-03-22T13:06:57.751Z,9.97
2023-03-22T13:09:41.517Z,9.10
2023-03-22T13:12:33.678Z,9.83
2023-03-22T13:15:06.282Z,10.20
2023-03-22T13:17:42.035Z,9.80
2023-03-22T13:20:27.842Z,10.80
2023-03-22T13:23:10.558Z,10.83
2023-03-22T13:25:40.262Z,10.83
2023-03-22T13:28:24.733Z,10.10
2023-03-22T13:30:54.013Z,11.10
2023-03-22T13:33:27.774Z,10.60
2023-03-22T13:35:59.182Z,9.53
2023-03-22T13:38:29.460Z,12.93
2023-03-22T13:41:03.619Z,10.63
2023-03-22T13:43:34.487Z,11.00
2023-03-22T13:46:27.621Z,12.30
2023-03-22T13:49:16.738Z,11.13
2023-03-22T13:51:45.978Z,10.50
2023-03-22T13:54:23.921Z,9.60
2023-03-22T13:56:57.212Z,11.27
2023-03-22T13:59:31.141Z,11.77
2023-03-22T14:02:04.980Z,11.30
2023-03-22T14:04:40.795Z,12.10
2023-03-22T14:07:19.692Z,14.23
2023-03-22T14:09:52.453Z,10.17
2023-03-22T14:12:24.096Z,11.07
2023-03-22T14:14:56.304Z,11.77
2023-03-22T14:17:32.966Z,11.50
2023-03-22T14:20:04.918Z,9.63
